createdAt,value
2023-02-15T00:00:01.526Z,414.65
2023-02-15T00:02:27.888Z,370.70
2023-02-15T00:04:54.700Z,600.03
2023-02-15T00:07:21.051Z,378.25
2023-02-15T00:09:47.605Z,459.20
2023-02-15T00:12:14.673Z,416.10
2023-02-15T00:14:41.007Z,522.08
2023-02-15T00:17:07.275Z,493.23
2023-02-15T00:19:33.657Z,442.13
2023-02-15T00:22:00.112Z,518.92
2023-02-15T00:24:26.492Z,638.85
2023-02-15T00:26:52.789Z,634.95
2023-02-15T00:29:19.962Z,597.33
2023-02-15T00:31:46.802Z,497.08
2023-02-15T00:34:23.462Z,605.45
2023-02-15T00:36:50.367Z,713.08
2023-02-15T00:39:17.297Z,645.40
2023-02-15T00:41:44.326Z,656.05
2023-02-15T00:44:10.735Z,738.70
2023-02-15T00:46:37.153Z,770.83
2023-02-15T00:49:03.634Z,629.85
2023-02-15T00:51:31.075Z,746.40
2023-02-15T00:53:57.357Z,577.85
2023-02-15T00:56:23.745Z,743.17
2023-02-15T00:58:50.047Z,465.90
2023-02-15T01:01:18.087Z,592.60
2023-02-15T01:03:44.776Z,459.20
2023-02-15T01:06:11.602Z,441.52
2023-02-15T01:08:38.214Z,351.73
2023-02-15T01:11:06.163Z,542.38
2023-02-15T01:13:32.542Z,361.38
2023-02-15T01:15:59.391Z,418.95
2023-02-15T01:18:26.458Z,567.00
2023-02-15T01:20:53.042Z,387.20
2023-02-15T01:23:19.484Z,540.58
2023-02-15T01:25:46.430Z,459.25
2023-02-15T01:28:12.755Z,431.00
2023-02-15T01:30:39.477Z,736.00
2023-02-15T01:33:05.803Z,603.53
2023-02-15T01:35:32.521Z,715.75
2023-02-15T01:37:58.939Z,708.28
2023-02-15T01:40:25.544Z,599.60
2023-02-15T01:42:55.576Z,759.33
2023-02-15T01:45:26.669Z,427.85
2023-02-15T01:48:11.734Z,715.53
2023-02-15T01:50:43.763Z,694.22
2023-02-15T01:53:16.588Z,569.17
2023-02-15T01:56:00.142Z,683.63
2023-02-15T01:58:28.095Z,595.75
2023-02-15T02:00:55.637Z,545.10
2023-02-15T02:03:24.878Z,643.85
2023-02-15T02:05:51.190Z,492.48
2023-02-15T02:08:17.529Z,753.97
2023-02-15T02:10:43.834Z,633.63
2023-02-15T02:13:10.129Z,661.17
2023-02-15T02:15:48.670Z,721.00
2023-02-15T02:18:33.880Z,583.00
2023-02-15T02:21:08.967Z,745.35
2023-02-15T02:23:59.843Z,575.13
2023-02-15T02:26:26.203Z,722.88
2023-02-15T02:29:11.329Z,757.80
2023-02-15T02:31:53.026Z,900.75
2023-02-15T02:34:34.532Z,944.38
2023-02-15T02:37:30.226Z,740.60
2023-02-15T02:40:05.061Z,629.17
2023-02-15T02:42:39.863Z,711.10
2023-02-15T02:45:08.830Z,627.47
2023-02-15T02:47:42.209Z,566.88
2023-02-15T02:50:10.707Z,722.67
2023-02-15T02:52:37.133Z,771.45
2023-02-15T02:55:05.542Z,511.73
2023-02-15T02:57:33.471Z,748.30
2023-02-15T03:00:02.052Z,865.53
2023-02-15T03:02:32.799Z,555.38
2023-02-15T03:05:04.519Z,550.38
2023-02-15T03:07:31.983Z,486.55
2023-02-15T03:10:01.456Z,661.70
2023-02-15T03:12:30.739Z,642.45
2023-02-15T03:15:01.857Z,499.52
2023-02-15T03:17:29.618Z,674.22
2023-02-15T03:19:57.690Z,739.60
2023-02-15T03:22:29.011Z,470.85
2023-02-15T03:25:07.523Z,519.70
2023-02-15T03:27:39.308Z,869.47
2023-02-15T03:30:06.847Z,684.50
2023-02-15T03:32:33.965Z,573.00
2023-02-15T03:35:00.454Z,598.88
2023-02-15T03:37:29.477Z,473.15
2023-02-15T03:40:23.250Z,519.22
2023-02-15T03:42:57.475Z,773.42
2023-02-15T03:45:26.138Z,716.45
2023-02-15T03:47:53.476Z,668.28
2023-02-15T03:50:40.543Z,792.00
2023-02-15T03:53:08.978Z,824.58
2023-02-15T03:55:35.655Z,861.45
2023-02-15T03:58:20.786Z,797.58
2023-02-15T04:01:09.424Z,694.53
2023-02-15T04:03:45.682Z,943.78
2023-02-15T04:06:11.987Z,690.72
2023-02-15T04:08:57.182Z,356.48
2023-02-15T04:11:23.480Z,287.48
2023-02-15T04:13:57.220Z,473.65
2023-02-15T04:16:24.123Z,421.20
2023-02-15T04:19:09.279Z,421.80
2023-02-15T04:21:54.162Z,483.23
2023-02-15T04:24:39.490Z,553.15
2023-02-15T04:27:06.647Z,499.27
2023-02-15T04:29:32.942Z,520.85
2023-02-15T04:32:00.313Z,545.58
2023-02-15T04:34:26.960Z,516.28
2023-02-15T04:36:53.270Z,550.50
2023-02-15T04:39:19.862Z,903.00
2023-02-15T04:41:46.521Z,704.58
2023-02-15T04:44:12.960Z,729.33
2023-02-15T04:46:39.222Z,928.42
2023-02-15T04:49:05.534Z,1047.63
2023-02-15T04:51:31.798Z,979.08
2023-02-15T04:53:58.088Z,761.30
2023-02-15T04:56:24.452Z,758.38
2023-02-15T04:58:50.824Z,1140.32
2023-02-15T05:01:17.975Z,1107.65
2023-02-15T05:03:44.323Z,960.92
2023-02-15T05:06:10.647Z,1019.97
2023-02-15T05:08:36.993Z,921.72
2023-02-15T05:11:03.286Z,1062.05
2023-02-15T05:13:29.778Z,986.47
2023-02-15T05:15:56.164Z,1062.13
2023-02-15T05:18:22.845Z,1157.90
2023-02-15T05:20:49.785Z,1035.57
2023-02-15T05:23:16.508Z,1043.53
2023-02-15T05:26:05.210Z,935.97
2023-02-15T05:28:31.450Z,937.05
2023-02-15T05:31:05.676Z,1082.22
2023-02-15T05:33:32.814Z,1115.88
2023-02-15T05:35:59.323Z,1118.90
2023-02-15T05:38:25.723Z,929.17
2023-02-15T05:40:52.668Z,1092.47
2023-02-15T05:43:19.314Z,1232.03
2023-02-15T05:45:46.438Z,1265.85
2023-02-15T05:48:12.763Z,1144.55
2023-02-15T05:50:39.050Z,833.80
2023-02-15T05:53:05.309Z,844.97
2023-02-15T05:55:31.632Z,970.53
2023-02-15T05:57:58.093Z,897.50
2023-02-15T06:00:26.147Z,1015.95
2023-02-15T06:02:52.465Z,870.80
2023-02-15T06:05:18.721Z,976.50
2023-02-15T06:07:45.753Z,1065.18
2023-02-15T06:10:12.188Z,922.35
2023-02-15T06:12:38.512Z,997.88
2023-02-15T06:15:04.889Z,994.83
2023-02-15T06:17:31.358Z,656.50
2023-02-15T06:19:57.689Z,1056.88
2023-02-15T06:22:24.029Z,869.70
2023-02-15T06:24:50.353Z,742.58
2023-02-15T06:27:16.771Z,800.00
2023-02-15T06:29:43.063Z,887.50
2023-02-15T06:32:09.374Z,823.17
2023-02-15T06:34:35.691Z,648.97
2023-02-15T06:37:01.978Z,980.63
2023-02-15T06:39:28.306Z,980.38
2023-02-15T06:41:54.569Z,1007.05
2023-02-15T06:44:20.926Z,1013.53
2023-02-15T06:46:47.261Z,1020.63
2023-02-15T06:49:13.678Z,1033.47
2023-02-15T06:51:40.045Z,876.45
2023-02-15T06:54:06.414Z,864.60
2023-02-15T06:56:32.819Z,874.38
2023-02-15T06:58:59.322Z,823.78
2023-02-15T07:01:25.990Z,626.47
2023-02-15T07:03:52.338Z,684.50
2023-02-15T07:06:18.605Z,887.65
2023-02-15T07:08:45.152Z,1010.40
2023-02-15T07:11:30.220Z,819.67
2023-02-15T07:13:56.575Z,907.63
2023-02-15T07:16:23.067Z,746.35
2023-02-15T07:18:49.518Z,851.90
2023-02-15T07:21:15.890Z,569.70
2023-02-15T07:23:42.249Z,687.22
2023-02-15T07:26:08.698Z,772.72
2023-02-15T07:28:35.419Z,412.48
2023-02-15T07:31:02.627Z,524.50
2023-02-15T07:33:30.813Z,639.28
2023-02-15T07:35:58.885Z,694.25
2023-02-15T07:38:30.756Z,785.08
2023-02-15T07:41:05.295Z,617.90
2023-02-15T07:43:33.545Z,636.45
2023-02-15T07:46:04.218Z,567.55
2023-02-15T07:48:30.727Z,598.97
2023-02-15T07:51:00.786Z,554.70
2023-02-15T07:53:27.375Z,497.35
2023-02-15T07:55:53.807Z,660.28
2023-02-15T07:58:20.306Z,518.58
2023-02-15T08:01:06.850Z,572.78
2023-02-15T08:03:33.196Z,531.03
2023-02-15T08:06:00.482Z,494.63
2023-02-15T08:08:30.649Z,496.63
2023-02-15T08:11:19.816Z,410.42
2023-02-15T08:13:56.086Z,271.15
2023-02-15T08:16:23.415Z,294.30
2023-02-15T08:18:49.780Z,396.92
2023-02-15T08:21:16.353Z,323.52
2023-02-15T08:23:42.599Z,432.52
2023-02-15T08:26:08.902Z,438.48
2023-02-15T08:28:35.146Z,325.83
2023-02-15T08:31:14.512Z,286.30
2023-02-15T08:33:41.574Z,447.77
2023-02-15T08:36:11.918Z,278.23
2023-02-15T08:38:38.417Z,332.65
2023-02-15T08:41:16.973Z,248.60
2023-02-15T08:43:43.928Z,333.52
2023-02-15T08:46:13.069Z,323.40
2023-02-15T08:48:39.728Z,349.13
2023-02-15T08:51:13.465Z,250.82
2023-02-15T08:53:40.661Z,327.83
2023-02-15T08:56:07.575Z,298.95
2023-02-15T08:58:34.235Z,262.17
2023-02-15T09:01:03.068Z,286.92
2023-02-15T09:03:29.717Z,230.20
2023-02-15T09:06:00.125Z,183.25
2023-02-15T09:08:26.842Z,219.48
2023-02-15T09:10:53.097Z,339.58
2023-02-15T09:13:19.497Z,269.20
2023-02-15T09:15:45.937Z,405.23
2023-02-15T09:18:13.146Z,279.52
2023-02-15T09:20:39.448Z,394.38
2023-02-15T09:23:05.778Z,435.17
2023-02-15T09:25:32.070Z,183.20
2023-02-15T09:27:58.425Z,402.33
2023-02-15T09:30:24.887Z,242.73
2023-02-15T09:32:51.308Z,338.63
2023-02-15T09:35:17.662Z,299.98
2023-02-15T09:37:44.001Z,283.92
2023-02-15T09:40:13.251Z,310.05
2023-02-15T09:42:42.435Z,276.77
2023-02-15T09:45:19.963Z,189.57
2023-02-15T09:48:13.408Z,267.30
2023-02-15T09:50:58.319Z,340.50
2023-02-15T09:53:30.337Z,341.27
2023-02-15T09:56:07.105Z,418.52
2023-02-15T09:58:51.814Z,367.42
2023-02-15T10:01:30.430Z,334.38
2023-02-15T10:04:10.515Z,325.58
2023-02-15T10:06:43.271Z,496.92
2023-02-15T10:09:12.635Z,375.90
2023-02-15T10:11:44.072Z,445.20
2023-02-15T10:14:18.823Z,224.43
2023-02-15T10:16:57.249Z,196.02
2023-02-15T10:19:58.641Z,222.02
2023-02-15T10:22:49.340Z,187.10
2023-02-15T10:25:15.626Z,370.95
2023-02-15T10:27:49.428Z,249.98
2023-02-15T10:30:18.587Z,274.27
2023-02-15T10:32:44.932Z,187.57
2023-02-15T10:35:21.064Z,203.13
2023-02-15T10:37:54.501Z,202.80
2023-02-15T10:40:34.295Z,208.55
2023-02-15T10:43:19.051Z,290.30
2023-02-15T10:45:54.548Z,315.63
2023-02-15T10:48:31.265Z,277.45
2023-02-15T10:51:05.169Z,402.10
2023-02-15T10:53:50.811Z,378.17
2023-02-15T10:56:24.704Z,159.32
2023-02-15T10:59:13.795Z,414.92
2023-02-15T11:01:48.205Z,366.23
2023-02-15T11:04:17.539Z,165.68
2023-02-15T11:06:49.233Z,314.95
2023-02-15T11:09:19.013Z,219.80
2023-02-15T11:11:48.154Z,189.80
2023-02-15T11:14:39.533Z,207.95
2023-02-15T11:17:09.732Z,106.93
2023-02-15T11:19:43.698Z,104.22
2023-02-15T11:22:11.022Z,187.98
2023-02-15T11:24:41.735Z,142.93
2023-02-15T11:27:15.759Z,96.65
2023-02-15T11:29:46.873Z,86.47
2023-02-15T11:32:31.059Z,73.50
2023-02-15T11:34:57.315Z,94.60
2023-02-15T11:37:28.658Z,81.93
2023-02-15T11:39:55.665Z,79.70
2023-02-15T11:42:24.066Z,81.40
2023-02-15T11:44:59.249Z,84.40
2023-02-15T11:47:25.577Z,78.68
2023-02-15T11:49:51.853Z,90.32
2023-02-15T11:52:19.314Z,77.70
2023-02-15T11:54:51.022Z,85.05
2023-02-15T11:57:17.407Z,82.65
2023-02-15T11:59:47.342Z,80.90
2023-02-15T12:02:19.390Z,87.97
2023-02-15T12:04:49.668Z,76.82
2023-02-15T12:07:26.526Z,68.57
2023-02-15T12:10:07.874Z,78.25
2023-02-15T12:12:34.938Z,84.07
2023-02-15T12:15:06.597Z,100.15
2023-02-15T12:17:40.349Z,135.80
2023-02-15T12:22:34.239Z,110.95
2023-02-15T12:25:02.041Z,148.23
2023-02-15T12:27:33.180Z,75.18
2023-02-15T12:30:05.386Z,105.60
2023-02-15T12:32:36.708Z,71.28
2023-02-15T12:35:23.354Z,135.02
2023-02-15T12:37:57.678Z,106.53
2023-02-15T12:40:30.890Z,85.95
2023-02-15T12:45:27.004Z,78.22
2023-02-15T12:48:22.427Z,79.32
2023-02-15T12:51:06.332Z,76.68
2023-02-15T12:56:00.640Z,74.82
2023-02-15T12:58:28.414Z,87.90
2023-02-15T13:01:04.190Z,87.00
2023-02-15T13:03:30.946Z,91.05
2023-02-15T13:05:58.888Z,130.43
2023-02-15T13:08:29.798Z,116.32
2023-02-15T13:10:57.666Z,99.75
2023-02-15T13:13:28.277Z,84.47
2023-02-15T13:15:56.294Z,85.07
2023-02-15T13:18:44.083Z,112.65
2023-02-15T13:21:10.543Z,103.85
2023-02-15T13:23:37.434Z,100.03
2023-02-15T13:26:05.088Z,87.90
2023-02-15T13:28:51.474Z,81.43
2023-02-15T13:31:22.127Z,98.72
2023-02-15T13:33:59.387Z,89.03
2023-02-15T13:36:42.188Z,88.20
2023-02-15T13:39:13.492Z,84.53
2023-02-15T13:41:58.468Z,87.28
2023-02-15T13:44:24.740Z,78.82
2023-02-15T13:47:11.320Z,77.88
2023-02-15T13:49:47.003Z,78.57
2023-02-15T13:52:23.818Z,79.68
2023-02-15T13:55:02.964Z,78.45
2023-02-15T13:57:42.456Z,80.88
2023-02-15T14:00:22.164Z,80.30
2023-02-15T14:03:09.845Z,77.00
2023-02-15T14:05:36.133Z,99.25
2023-02-15T14:08:09.753Z,100.13
2023-02-15T14:10:43.770Z,94.78
2023-02-15T14:13:10.197Z,87.18
2023-02-15T14:15:41.234Z,89.95
2023-02-15T14:18:14.159Z,90.55
2023-02-15T14:20:43.472Z,89.35
2023-02-15T14:23:24.724Z,92.97
2023-02-15T14:25:54.313Z,86.47
2023-02-15T14:28:28.948Z,94.97
2023-02-15T14:30:55.435Z,98.78
2023-02-15T14:33:40.936Z,88.20
2023-02-15T14:36:08.277Z,88.05
2023-02-15T14:38:37.624Z,88.47
2023-02-15T14:41:05.067Z,92.72
2023-02-15T14:43:32.203Z,104.30
2023-02-15T14:46:05.188Z,93.68
2023-02-15T14:48:34.277Z,102.70
2023-02-15T14:51:00.803Z,108.07
2023-02-15T14:53:33.136Z,112.47
2023-02-15T14:56:11.736Z,122.75
2023-02-15T14:58:38.839Z,111.25
2023-02-15T15:01:08.936Z,107.65
2023-02-15T15:03:36.467Z,110.40
2023-02-15T15:06:05.836Z,106.20
2023-02-15T15:08:38.005Z,200.30
2023-02-15T15:11:42.087Z,101.53
2023-02-15T15:14:09.172Z,113.18
2023-02-15T15:16:35.437Z,128.73
2023-02-15T15:19:02.698Z,103.30
2023-02-15T15:21:47.459Z,116.97
2023-02-15T15:24:46.400Z,128.00
2023-02-15T15:27:31.215Z,110.50
2023-02-15T15:29:57.664Z,116.68
2023-02-15T15:32:27.809Z,121.30
2023-02-15T15:35:05.929Z,110.13
2023-02-15T15:37:43.467Z,119.43
2023-02-15T15:40:13.900Z,137.02
2023-02-15T15:42:50.877Z,145.40
2023-02-15T15:45:27.153Z,124.57
2023-02-15T15:48:07.738Z,118.40
2023-02-15T15:50:34.386Z,116.03
2023-02-15T15:53:02.234Z,108.70
2023-02-15T15:55:29.981Z,104.55
2023-02-15T15:58:07.006Z,105.50
2023-02-15T16:00:48.236Z,103.90
2023-02-15T16:03:15.933Z,99.15
2023-02-15T16:05:42.475Z,93.85
2023-02-15T16:08:08.765Z,91.07
2023-02-15T16:10:36.795Z,93.72
2023-02-15T16:13:03.327Z,94.80
2023-02-15T16:15:37.092Z,98.78
2023-02-15T16:20:37.019Z,82.80
2023-02-15T16:23:17.590Z,87.10
2023-02-15T16:26:02.661Z,94.03
2023-02-15T16:28:29.202Z,89.78
2023-02-15T16:30:59.850Z,97.53
2023-02-15T16:33:35.496Z,87.68
2023-02-15T16:36:04.082Z,91.45
2023-02-15T16:38:43.073Z,88.75
2023-02-15T16:41:11.164Z,91.50
2023-02-15T16:43:38.046Z,85.47
2023-02-15T16:46:06.111Z,87.90
2023-02-15T16:48:33.165Z,87.55
2023-02-15T16:50:59.822Z,84.93
2023-02-15T16:53:27.701Z,87.65
2023-02-15T16:55:55.359Z,88.70
2023-02-15T16:58:26.051Z,85.30
2023-02-15T17:00:56.124Z,86.35
2023-02-15T17:03:24.481Z,86.03
2023-02-15T17:05:52.388Z,68.45
2023-02-15T17:08:20.557Z,87.82
2023-02-15T17:11:02.197Z,66.68
2023-02-15T17:13:29.031Z,82.88
2023-02-15T17:16:01.397Z,82.18
2023-02-15T17:18:29.817Z,83.53
2023-02-15T17:20:59.631Z,89.05
2023-02-15T17:23:25.875Z,85.18
2023-02-15T17:25:52.831Z,87.82
2023-02-15T17:28:21.088Z,86.40
2023-02-15T17:30:47.952Z,78.97
2023-02-15T17:33:23.700Z,81.43
2023-02-15T17:36:03.455Z,68.25
2023-02-15T17:38:29.731Z,84.75
2023-02-15T17:40:57.255Z,77.00
2023-02-15T17:43:23.620Z,88.75
2023-02-15T17:45:50.775Z,95.10
2023-02-15T17:48:25.090Z,81.80
2023-02-15T17:50:51.443Z,81.35
2023-02-15T17:53:18.510Z,83.88
2023-02-15T17:55:45.438Z,82.13
2023-02-15T17:58:12.813Z,75.82
2023-02-15T18:00:59.912Z,96.38
2023-02-15T18:03:48.319Z,88.32
2023-02-15T18:06:33.366Z,91.22
2023-02-15T18:09:18.165Z,100.22
2023-02-15T18:11:48.619Z,90.60
2023-02-15T18:14:14.948Z,86.82
2023-02-15T18:16:43.308Z,93.95
2023-02-15T18:19:20.999Z,109.32
2023-02-15T18:21:47.427Z,110.18
2023-02-15T18:24:17.986Z,80.57
2023-02-15T18:26:44.436Z,104.88
2023-02-15T18:29:10.975Z,101.90
2023-02-15T18:31:37.504Z,101.35
2023-02-15T18:34:04.129Z,126.00
2023-02-15T18:36:32.558Z,109.95
2023-02-15T18:38:59.772Z,101.32
2023-02-15T18:41:26.518Z,102.05
2023-02-15T18:43:54.347Z,101.32
2023-02-15T18:46:21.037Z,112.82
2023-02-15T18:48:47.504Z,86.20
2023-02-15T18:51:21.306Z,103.78
2023-02-15T18:56:18.019Z,125.07
2023-02-15T18:58:47.523Z,109.28
2023-02-15T19:01:16.680Z,106.18
2023-02-15T19:03:50.230Z,127.03
2023-02-15T19:06:20.641Z,123.75
2023-02-15T19:08:48.817Z,110.30
2023-02-15T19:11:16.983Z,125.78
2023-02-15T19:13:43.262Z,187.25
2023-02-15T19:16:14.838Z,172.77
2023-02-15T19:18:41.234Z,195.15
2023-02-15T19:21:12.808Z,138.88
2023-02-15T19:23:39.086Z,164.45
2023-02-15T19:26:05.992Z,124.13
2023-02-15T19:28:34.025Z,160.27
2023-02-15T19:31:00.396Z,187.93
2023-02-15T19:33:26.766Z,199.60
2023-02-15T19:35:55.430Z,136.30
2023-02-15T19:38:25.116Z,201.02
2023-02-15T19:40:51.543Z,136.07
2023-02-15T19:43:19.334Z,274.52
2023-02-15T19:45:45.992Z,151.73
2023-02-15T19:48:13.865Z,114.00
2023-02-15T19:50:40.669Z,128.63
2023-02-15T19:53:14.575Z,142.25
2023-02-15T19:55:41.052Z,103.03
2023-02-15T19:58:11.221Z,119.07
2023-02-15T20:00:37.501Z,107.03
2023-02-15T20:03:03.808Z,109.40
2023-02-15T20:05:31.298Z,107.53
2023-02-15T20:07:58.089Z,97.88
2023-02-15T20:10:26.895Z,100.30
2023-02-15T20:12:54.989Z,104.93
2023-02-15T20:15:22.859Z,119.32
2023-02-15T20:17:49.955Z,121.60
2023-02-15T20:20:16.506Z,81.30
2023-02-15T20:22:44.010Z,122.03
2023-02-15T20:25:20.432Z,112.88
2023-02-15T20:27:47.238Z,106.90
2023-02-15T20:30:18.110Z,111.45
2023-02-15T20:32:44.519Z,112.60
2023-02-15T20:35:15.013Z,122.95
2023-02-15T20:37:41.458Z,117.05
2023-02-15T20:40:13.904Z,112.57
2023-02-15T20:42:40.188Z,124.32
2023-02-15T20:45:17.535Z,95.38
2023-02-15T20:47:48.271Z,101.75
2023-02-15T20:50:15.888Z,112.10
2023-02-15T20:52:42.267Z,156.65
2023-02-15T20:55:12.344Z,110.72
2023-02-15T20:57:38.609Z,110.93
2023-02-15T21:00:05.457Z,175.35
2023-02-15T21:02:31.845Z,139.38
2023-02-15T21:04:58.880Z,284.73
2023-02-15T21:07:25.170Z,136.63
2023-02-15T21:09:52.474Z,127.80
2023-02-15T21:12:19.564Z,176.95
2023-02-15T21:14:46.507Z,127.50
2023-02-15T21:17:14.010Z,181.27
2023-02-15T21:19:41.192Z,251.05
2023-02-15T21:22:10.683Z,183.20
2023-02-15T21:24:37.007Z,402.50
2023-02-15T21:27:04.089Z,128.60
2023-02-15T21:29:30.671Z,122.45
2023-02-15T21:31:58.401Z,161.48
2023-02-15T21:34:24.790Z,251.73
2023-02-15T21:36:51.271Z,125.35
2023-02-15T21:39:22.371Z,123.38
2023-02-15T21:42:07.937Z,114.15
2023-02-15T21:44:53.445Z,112.15
2023-02-15T21:47:39.301Z,164.48
2023-02-15T21:50:26.811Z,145.82
2023-02-15T21:52:53.374Z,195.98
2023-02-15T21:55:19.735Z,176.57
2023-02-15T21:57:46.037Z,180.18
2023-02-15T22:00:22.603Z,139.82
2023-02-15T22:02:50.897Z,131.27
2023-02-15T22:05:19.010Z,144.85
2023-02-15T22:07:45.845Z,156.85
2023-02-15T22:10:12.413Z,179.13
2023-02-15T22:12:39.405Z,163.10
2023-02-15T22:15:05.968Z,221.18
2023-02-15T22:17:34.348Z,228.35
2023-02-15T22:20:00.660Z,202.35
2023-02-15T22:22:27.000Z,227.07
2023-02-15T22:24:53.275Z,270.35
2023-02-15T22:27:27.242Z,423.63
2023-02-15T22:29:54.316Z,293.65
2023-02-15T22:32:22.586Z,450.88
2023-02-15T22:34:49.226Z,284.85
2023-02-15T22:37:15.688Z,290.02
2023-02-15T22:39:42.015Z,199.68
2023-02-15T22:42:20.799Z,503.08
2023-02-15T22:44:48.321Z,370.33
2023-02-15T22:47:19.658Z,258.67
2023-02-15T22:49:45.937Z,326.70
2023-02-15T22:52:13.242Z,290.40
2023-02-15T22:54:39.561Z,547.47
2023-02-15T22:57:06.188Z,408.00
2023-02-15T22:59:34.137Z,382.33
2023-02-15T23:02:00.826Z,189.93
2023-02-15T23:04:28.034Z,189.45
2023-02-15T23:06:55.428Z,196.90
2023-02-15T23:09:22.030Z,201.27
2023-02-15T23:11:49.379Z,256.75
2023-02-15T23:14:27.166Z,547.42
2023-02-15T23:16:54.129Z,373.38
2023-02-15T23:19:20.730Z,220.77
2023-02-15T23:21:47.126Z,290.80
2023-02-15T23:24:26.839Z,321.05
2023-02-15T23:26:53.412Z,218.07
2023-02-15T23:29:20.870Z,222.57
2023-02-15T23:31:48.900Z,239.20
2023-02-15T23:34:17.479Z,189.48
2023-02-15T23:36:44.362Z,147.02
2023-02-15T23:39:36.867Z,114.47
2023-02-15T23:42:07.397Z,155.20
2023-02-15T23:44:33.923Z,134.38
2023-02-15T23:47:00.259Z,147.07
2023-02-15T23:49:26.559Z,223.85
2023-02-15T23:51:53.847Z,181.32
2023-02-15T23:54:21.657Z,216.00
2023-02-15T23:56:52.834Z,243.88
2023-02-15T23:59:20.682Z,285.52
